Accueil
METAR-TAF:

METAR-TAF

Aéroports :

Otis Air National Guard Base

Falmouth, Massachusetts, États-Unis

latitude: 41-39N, longitude: 070-31W, altitude: 40 m

Observation

Le bulletin a été fait il y a 19 minutes, à 02:55 UTC
Vent 3 kt de direction variable
Température -3°C
Humidité 63%
Pression 1021 hPa
Visibilité: 16.1 km
Ciel clair

METAR: KFMH 110255Z VRB03KT 10SM CLR M03/M09 A3016 RMK AO2

Heure: 22:14 (03:14 UTC)

Prévision

Le bulletin a été fait il y a 3 heures et 44 minutes, à 23:30 UTC
Prévision valable du 11 à 00 UTC au 11 à 24 UTC
Vent 3 kt de nord
Visibilité: 10 km
Ciel clair
A partir de 11 à 0800 UTC
Vent 3 kt de direction variable
Visibilité: 10 km
Quelques nuages à une hauteur de 2500 ft
A partir de 11 à 1800 UTC
Vent 5 kt de sud
Visibilité: 10 km
Nuages épars à une hauteur de 2500 ft

TAF: KFMH 102330Z 1100/1124 36003KT P6SM SKC FM110800 VRB03KT P6SM FEW025 FM111800 18005KT P6SM SCT025

Observations et prévisions météorologiques de plus de 4000 aéroports (messages METAR et TAF).

Les stations disponibles sont représentées par des disques jaunes et rouges sur la carte.

Passer la souris dessus pour voir le nom de la station.

Cliquer dessus pour voir les observations et prévisions météorologiques.

Pour changer de carte: cliquez sur les boutons verts avec une croix noire pour zoomer, sur le bouton vert avec un tiret pour effectuer un zoom arrière, ou sur les flèches vertes pour les cartes adjacentes.


METAR-TAF: